KETN/ETN METAR and TAF weather

Enter ICAO airport designator
Station Type Date Time Source
KETN METAR 2019/06/16 20:35 UTC NOAA

KETN 162035Z AUTO 00000KT 10SM VCTS BKN030 BKN036 BKN060 22/17 A2986 RMK AO2 LTG DSNT ALQDS T02190166


Station Type Date Time Source
KETN Decoded METAR 2019/06/16 20:35 UTC NOAA

Station name not available
Jun 16, 2019 - 04:35 PM EDT / 2019.06.16 2035 UTC
Wind: Calm:0
Visibility: 10 mile(s):0
Sky conditions: mostly cloudy
Weather: thunder in the vicinity; Lightning observed
Temperature: 71.4 F (21.9 C)
Dew Point: 61.9 F (16.6 C)
Relative Humidity: 71%
Pressure (altimeter): 29.86 in. Hg (1011 hPa)
ob: KETN 162035Z AUTO 00000KT 10SM VCTS BKN030 BKN036 BKN060 22/17 A2986 RMK AO2 LTG DSNT ALQDS T02190166
cycle: 20

Station Type Date Time Source
KETN TAF UTC NOAA

Error!

Example: see airport list